createdAt,value
2022-10-24T00:00:35.433Z,100029.40
2022-10-24T00:03:28.748Z,100033.00
2022-10-24T00:06:02.163Z,100040.40
2022-10-24T00:08:35.496Z,100049.80
2022-10-24T00:11:14.267Z,100052.60
2022-10-24T00:13:48.144Z,100058.00
2022-10-24T00:16:22.071Z,100071.40
2022-10-24T00:18:55.718Z,100068.60
2022-10-24T00:21:28.949Z,100070.80
2022-10-24T00:24:02.169Z,100083.80
2022-10-24T00:26:36.212Z,100088.40
2022-10-24T00:29:09.570Z,100105.20
2022-10-24T00:31:43.111Z,100097.40
2022-10-24T00:34:16.758Z,100084.40
2022-10-24T00:36:50.383Z,100087.20
2022-10-24T00:39:24.181Z,100069.00
2022-10-24T00:41:59.066Z,100071.40
2022-10-24T00:44:36.980Z,100066.60
2022-10-24T00:47:17.177Z,100065.00
2022-10-24T00:50:00.678Z,100069.60
2022-10-24T00:52:42.045Z,100059.80
2022-10-24T00:55:17.254Z,100052.80
2022-10-24T00:57:54.191Z,100057.80
2022-10-24T01:00:32.515Z,100044.60
2022-10-24T01:03:06.633Z,100034.60
2022-10-24T01:05:57.552Z,100023.40
2022-10-24T01:08:43.150Z,100014.20
2022-10-24T01:11:35.256Z,100017.20
2022-10-24T01:14:27.360Z,100013.80
2022-10-24T01:17:12.765Z,100018.60
2022-10-24T01:20:29.869Z,100013.20
2022-10-24T01:23:35.332Z,100011.40
2022-10-24T01:26:49.015Z,100007.80
2022-10-24T01:29:32.059Z,99996.20
2022-10-24T01:32:10.970Z,99988.80
2022-10-24T01:34:52.205Z,99983.40
2022-10-24T01:37:36.433Z,99976.00
2022-10-24T01:40:18.477Z,99962.40
2022-10-24T01:42:58.157Z,99963.20
2022-10-24T01:45:38.012Z,99969.40
2022-10-24T01:48:17.050Z,99960.00
2022-10-24T01:50:54.557Z,99950.60
2022-10-24T01:53:30.031Z,99948.80
2022-10-24T01:56:04.010Z,99952.80
2022-10-24T01:58:37.828Z,99950.00
2022-10-24T02:01:17.115Z,99939.40
2022-10-24T02:03:55.688Z,99934.40
2022-10-24T02:06:36.423Z,99928.80
2022-10-24T02:09:16.357Z,99929.80
2022-10-24T02:11:53.279Z,99931.60
2022-10-24T02:14:34.537Z,99936.80
2022-10-24T02:17:08.268Z,99935.60
2022-10-24T02:19:41.578Z,99939.20
2022-10-24T02:22:27.358Z,99944.40
2022-10-24T02:25:08.360Z,99958.00
2022-10-24T02:27:49.043Z,99968.20
2022-10-24T02:30:26.565Z,99959.40
2022-10-24T02:33:02.310Z,99950.80
2022-10-24T02:35:40.105Z,99950.00
2022-10-24T02:38:20.102Z,99941.60
2022-10-24T02:40:55.548Z,99951.20
2022-10-24T02:43:31.455Z,99954.60
2022-10-24T02:46:08.308Z,99943.80
2022-10-24T02:48:48.883Z,99948.00
2022-10-24T02:51:27.104Z,99950.60
2022-10-24T02:54:05.730Z,99943.40
2022-10-24T02:56:43.911Z,99940.80
2022-10-24T02:59:18.025Z,99950.40
2022-10-24T03:01:51.740Z,99952.60
2022-10-24T03:04:25.612Z,99947.40
2022-10-24T03:06:59.951Z,99946.60
2022-10-24T03:09:33.485Z,99943.80
2022-10-24T03:12:07.992Z,99948.40
2022-10-24T03:14:42.457Z,99957.00
2022-10-24T03:17:16.023Z,99949.80
2022-10-24T03:19:50.034Z,99948.20
2022-10-24T03:22:26.412Z,99945.20
2022-10-24T03:25:03.760Z,99950.60
2022-10-24T03:27:37.661Z,99938.00
2022-10-24T03:30:13.681Z,99935.00
2022-10-24T03:32:47.501Z,99930.80
2022-10-24T03:35:21.742Z,99933.80
2022-10-24T03:37:55.339Z,99929.20
2022-10-24T03:40:28.834Z,99928.80
2022-10-24T03:43:02.337Z,99931.80
2022-10-24T03:45:37.582Z,99927.80
2022-10-24T03:48:11.688Z,99924.20
2022-10-24T03:50:45.409Z,99918.20
2022-10-24T03:53:19.540Z,99913.80
2022-10-24T03:55:52.979Z,99913.20
2022-10-24T03:58:29.229Z,99926.20
2022-10-24T04:01:03.056Z,99931.40
2022-10-24T04:03:56.401Z,99931.00
2022-10-24T04:06:31.412Z,99927.60
2022-10-24T04:09:07.569Z,99911.40
2022-10-24T04:11:41.449Z,99912.60
2022-10-24T04:14:14.754Z,99918.80
2022-10-24T04:16:48.176Z,99916.20
2022-10-24T04:19:21.369Z,99913.20
2022-10-24T04:21:54.779Z,99916.60
2022-10-24T04:24:27.977Z,99916.40
2022-10-24T04:27:01.375Z,99930.20
2022-10-24T04:29:35.066Z,99923.40
2022-10-24T04:32:08.903Z,99923.40
2022-10-24T04:34:42.833Z,99929.80
2022-10-24T04:37:16.325Z,99927.80
2022-10-24T04:39:49.838Z,99932.40
2022-10-24T04:42:23.616Z,99935.20
2022-10-24T04:44:57.035Z,99943.20
2022-10-24T04:47:31.043Z,99933.20
2022-10-24T04:50:04.978Z,99931.40
2022-10-24T04:52:38.549Z,99933.60
2022-10-24T04:55:12.746Z,99938.20
2022-10-24T04:57:46.464Z,99949.20
2022-10-24T05:00:21.348Z,99939.80
2022-10-24T05:02:56.802Z,99945.40
2022-10-24T05:05:32.759Z,99949.00
2022-10-24T05:08:06.306Z,99953.60
2022-10-24T05:10:39.654Z,99954.00
2022-10-24T05:13:16.306Z,99960.80
2022-10-24T05:15:49.662Z,99957.20
2022-10-24T05:18:25.475Z,99956.00
2022-10-24T05:21:01.851Z,99955.20
2022-10-24T05:23:35.234Z,99948.60
2022-10-24T05:26:08.956Z,99954.00
2022-10-24T05:28:42.515Z,99949.60
2022-10-24T05:31:16.104Z,99952.40
2022-10-24T05:33:49.638Z,99952.40
2022-10-24T05:36:23.417Z,99947.00
2022-10-24T05:38:56.916Z,99946.00
2022-10-24T05:41:30.080Z,99944.20
2022-10-24T05:44:03.327Z,99950.00
2022-10-24T05:46:36.572Z,99946.20
2022-10-24T05:49:10.335Z,99946.40
2022-10-24T05:51:43.584Z,99948.80
2022-10-24T05:54:16.980Z,99955.40
2022-10-24T05:56:50.161Z,99958.80
2022-10-24T05:59:23.490Z,99959.40
2022-10-24T06:01:56.762Z,99962.00
2022-10-24T06:04:30.152Z,99963.00
2022-10-24T06:07:12.306Z,99974.20
2022-10-24T06:09:45.716Z,99975.00
2022-10-24T06:12:18.858Z,99970.20
2022-10-24T06:14:52.018Z,99962.00
2022-10-24T06:17:25.244Z,99962.20
2022-10-24T06:19:58.344Z,99958.80
2022-10-24T06:22:31.462Z,99965.00
2022-10-24T06:25:04.926Z,99965.20
2022-10-24T06:27:38.151Z,99968.20
2022-10-24T06:30:13.007Z,99967.60
2022-10-24T06:32:48.751Z,99972.60
2022-10-24T06:35:22.683Z,99973.80
2022-10-24T06:37:55.842Z,99979.00
2022-10-24T06:40:28.947Z,99976.40
2022-10-24T06:43:02.052Z,99990.80
2022-10-24T06:45:35.312Z,99992.20
2022-10-24T06:48:10.608Z,99995.60
2022-10-24T06:50:43.836Z,99988.60
2022-10-24T06:53:17.292Z,99984.00
2022-10-24T06:55:50.504Z,99976.80
2022-10-24T06:58:23.834Z,99968.60
2022-10-24T07:00:57.053Z,99975.20
2022-10-24T07:03:30.515Z,99977.80
2022-10-24T07:06:08.565Z,99974.80
2022-10-24T07:08:41.692Z,99972.40
2022-10-24T07:11:15.708Z,99970.60
2022-10-24T07:13:49.377Z,99976.60
2022-10-24T07:16:22.602Z,99976.40
2022-10-24T07:18:55.897Z,99977.40
2022-10-24T07:21:31.838Z,99984.00
2022-10-24T07:24:06.021Z,99986.60
2022-10-24T07:26:40.016Z,99983.80
2022-10-24T07:29:13.078Z,99976.40
2022-10-24T07:31:47.375Z,99974.40
2022-10-24T07:34:21.481Z,99976.20
2022-10-24T07:36:54.605Z,99976.60
2022-10-24T07:39:27.666Z,99974.00
2022-10-24T07:42:01.026Z,99979.60
2022-10-24T07:44:34.190Z,99980.00
2022-10-24T07:47:09.087Z,99983.00
2022-10-24T07:49:42.199Z,99987.20
2022-10-24T07:52:15.451Z,99991.80
2022-10-24T07:54:48.708Z,99993.00
2022-10-24T07:57:22.110Z,99995.80
2022-10-24T07:59:55.371Z,99990.60
2022-10-24T08:02:28.518Z,99995.20
2022-10-24T08:05:01.738Z,99992.40
2022-10-24T08:07:55.838Z,99988.80
2022-10-24T08:10:39.194Z,99982.80
2022-10-24T08:13:13.630Z,99987.40
2022-10-24T08:15:47.535Z,99992.80
2022-10-24T08:18:20.796Z,99991.00
2022-10-24T08:21:03.412Z,99987.80
2022-10-24T08:23:38.488Z,99995.00
2022-10-24T08:26:16.442Z,99987.20
2022-10-24T08:28:50.044Z,99984.60
2022-10-24T08:31:25.451Z,99987.80
2022-10-24T08:33:59.605Z,99984.60
2022-10-24T08:36:36.298Z,99986.60
2022-10-24T08:39:09.804Z,99980.00
2022-10-24T08:41:47.820Z,99982.40
2022-10-24T08:44:30.260Z,99979.20
2022-10-24T08:47:16.387Z,99976.40
2022-10-24T08:49:55.349Z,99975.00
2022-10-24T08:52:36.589Z,99979.00
2022-10-24T08:58:16.485Z,99985.00
2022-10-24T09:00:54.473Z,99985.60
2022-10-24T09:06:30.814Z,99990.40
2022-10-24T09:09:06.936Z,99986.40
2022-10-24T09:11:52.300Z,99982.60
2022-10-24T09:14:28.682Z,99979.00
2022-10-24T09:17:14.370Z,99983.40
2022-10-24T09:19:52.887Z,99990.00
2022-10-24T09:22:29.242Z,99988.40
2022-10-24T09:25:07.964Z,99994.40
2022-10-24T09:27:43.413Z,99993.40
2022-10-24T09:30:22.329Z,99994.00
2022-10-24T09:32:59.434Z,99985.20
2022-10-24T09:35:35.461Z,99988.40
2022-10-24T09:38:33.541Z,99993.60
2022-10-24T09:41:19.836Z,99999.40
2022-10-24T09:43:56.534Z,99996.40
2022-10-24T09:46:36.818Z,99995.40
2022-10-24T09:49:23.605Z,99995.80
2022-10-24T09:52:08.135Z,100005.00
2022-10-24T09:54:41.209Z,100004.20
2022-10-24T09:57:21.472Z,99999.40
2022-10-24T10:00:03.508Z,99998.40
2022-10-24T10:02:38.672Z,99997.40
2022-10-24T10:05:22.309Z,99993.60
2022-10-24T10:22:07.306Z,99971.80
2022-10-24T10:24:46.729Z,99968.00
2022-10-24T10:27:33.976Z,99965.00
2022-10-24T10:30:25.131Z,99961.80
2022-10-24T10:33:16.033Z,99962.60
2022-10-24T10:35:59.452Z,99967.80
2022-10-24T10:38:49.498Z,99967.00
2022-10-24T10:41:45.293Z,99964.00
2022-10-24T10:44:49.353Z,99965.00
2022-10-24T10:47:40.876Z,99966.40
2022-10-24T10:50:34.557Z,99967.40
2022-10-24T10:53:36.549Z,99969.40
2022-10-24T10:56:32.439Z,99969.40
2022-10-24T10:59:29.908Z,99965.00
2022-10-24T11:02:28.265Z,99964.40
2022-10-24T11:05:24.736Z,99960.60
2022-10-24T11:08:14.779Z,99957.80
2022-10-24T11:10:54.983Z,99957.80
2022-10-24T11:13:38.016Z,99957.40
2022-10-24T11:16:18.521Z,99955.80
2022-10-24T11:18:57.191Z,99963.00
2022-10-24T11:21:35.092Z,99956.00
2022-10-24T11:24:15.829Z,99954.00
2022-10-24T11:26:57.769Z,99954.60
2022-10-24T11:29:39.548Z,99943.80
2022-10-24T11:32:25.187Z,99931.20
2022-10-24T11:35:06.299Z,99932.80
2022-10-24T11:37:44.676Z,99934.00
2022-10-24T11:40:22.742Z,99930.20
2022-10-24T11:43:06.281Z,99893.20
2022-10-24T11:45:55.809Z,99810.20
2022-10-24T11:48:38.394Z,99844.20
2022-10-24T11:51:19.529Z,99843.40
2022-10-24T11:53:59.601Z,99852.20
2022-10-24T11:56:40.550Z,99842.00
2022-10-24T11:59:24.165Z,99806.20
2022-10-24T12:02:52.115Z,99793.00
2022-10-24T12:05:44.854Z,99799.20
2022-10-24T12:08:51.522Z,99816.60
2022-10-24T12:12:16.820Z,99826.80
2022-10-24T12:15:10.576Z,99849.00
2022-10-24T12:18:05.834Z,99856.20
2022-10-24T12:20:41.656Z,99870.40
2022-10-24T12:23:27.640Z,99885.20
2022-10-24T12:26:19.764Z,99883.00
2022-10-24T12:29:01.346Z,99902.20
2022-10-24T12:32:15.599Z,99907.00
2022-10-24T12:35:29.060Z,99914.00
2022-10-24T12:37:55.934Z,99908.40
2022-10-24T12:40:57.751Z,99895.40
2022-10-24T12:43:38.189Z,99886.20
2022-10-24T12:46:56.165Z,99895.40
2022-10-24T12:49:34.443Z,99888.60
2022-10-24T12:53:13.733Z,99900.60
2022-10-24T12:59:01.884Z,99872.20
2022-10-24T13:01:39.164Z,99872.20
2022-10-24T13:04:54.020Z,99901.20
2022-10-24T13:07:48.641Z,99872.00
2022-10-24T13:10:48.965Z,99889.60
2022-10-24T13:14:01.818Z,99879.00
2022-10-24T13:16:45.374Z,99889.40
2022-10-24T13:19:22.937Z,99899.00
2022-10-24T13:21:58.761Z,99906.00
2022-10-24T13:24:40.747Z,99909.20
2022-10-24T13:27:31.631Z,99907.20
2022-10-24T13:30:22.005Z,99910.60
2022-10-24T13:33:41.219Z,99929.40
2022-10-24T13:36:28.563Z,99929.00
2022-10-24T13:39:11.264Z,99926.40
2022-10-24T13:41:52.061Z,99925.80
2022-10-24T13:44:34.481Z,99926.60
2022-10-24T13:47:21.292Z,99930.00
2022-10-24T13:50:02.493Z,99933.20
2022-10-24T13:52:49.314Z,99933.00
2022-10-24T13:55:31.619Z,99932.80
2022-10-24T13:58:14.792Z,99932.20
2022-10-24T14:00:58.534Z,99930.80
2022-10-24T14:03:34.793Z,99939.00
2022-10-24T14:06:09.972Z,99946.60
2022-10-24T14:09:02.831Z,99952.20
2022-10-24T14:11:45.440Z,99955.20
2022-10-24T14:14:32.995Z,99960.40
2022-10-24T14:17:23.739Z,99961.00
2022-10-24T14:20:01.183Z,99962.20
2022-10-24T14:22:41.439Z,99960.20
2022-10-24T14:25:31.275Z,99963.20
2022-10-24T14:28:16.281Z,99966.80
2022-10-24T14:31:03.382Z,99962.00
2022-10-24T14:33:45.658Z,99962.20
2022-10-24T14:36:21.240Z,99962.80
2022-10-24T14:38:58.875Z,99963.20
2022-10-24T14:41:39.401Z,99970.20
2022-10-24T14:44:18.578Z,99967.00
2022-10-24T14:47:07.750Z,99966.20
2022-10-24T14:49:41.849Z,99966.00
2022-10-24T14:52:21.752Z,99960.60
2022-10-24T14:55:04.496Z,99958.20
2022-10-24T14:57:37.956Z,99953.20
2022-10-24T15:00:25.306Z,99944.20
2022-10-24T15:03:01.470Z,99945.40
2022-10-24T15:05:41.782Z,99950.00
2022-10-24T15:08:38.471Z,99953.40
2022-10-24T15:11:31.665Z,99948.00
2022-10-24T15:14:07.182Z,99944.80
2022-10-24T15:16:43.078Z,99938.60
2022-10-24T15:19:19.380Z,99939.20
2022-10-24T15:21:53.303Z,99931.80
2022-10-24T15:24:29.430Z,99932.60
2022-10-24T15:27:25.692Z,99933.40
2022-10-24T15:30:00.657Z,99935.80
2022-10-24T15:32:35.900Z,99947.80
2022-10-24T15:35:10.909Z,99951.80
2022-10-24T15:37:56.158Z,99949.00
2022-10-24T15:40:35.318Z,99959.40
2022-10-24T15:43:11.199Z,99959.60
2022-10-24T15:45:45.466Z,99958.60
2022-10-24T15:48:19.359Z,99968.00
2022-10-24T15:50:53.479Z,99969.00
2022-10-24T15:53:26.776Z,99976.40
2022-10-24T15:56:00.056Z,99979.60
2022-10-24T15:58:36.370Z,99977.40
2022-10-24T16:01:19.905Z,99975.60
2022-10-24T16:03:53.534Z,99981.60
2022-10-24T16:06:28.500Z,99978.40
2022-10-24T16:09:01.804Z,99972.60
2022-10-24T16:11:35.139Z,99969.00
2022-10-24T16:14:08.303Z,99970.20
2022-10-24T16:16:41.595Z,99963.40
2022-10-24T16:19:16.050Z,99963.60
2022-10-24T16:21:49.483Z,99959.20
2022-10-24T16:24:23.093Z,99956.20
2022-10-24T16:26:57.188Z,99952.20
2022-10-24T16:29:30.961Z,99957.60
2022-10-24T16:32:04.477Z,99965.80
2022-10-24T16:34:37.689Z,99974.20
2022-10-24T16:37:10.865Z,99976.00
2022-10-24T16:39:44.080Z,99973.60
2022-10-24T16:42:18.871Z,99969.60
2022-10-24T16:44:52.167Z,99975.40
2022-10-24T16:47:26.081Z,99974.60
2022-10-24T16:50:02.736Z,99970.20
2022-10-24T16:52:35.934Z,99973.80
2022-10-24T16:55:12.853Z,99981.00
2022-10-24T16:57:46.285Z,99982.60
2022-10-24T17:00:22.688Z,99986.20
2022-10-24T17:02:59.120Z,99993.00
2022-10-24T17:05:34.802Z,99997.00
2022-10-24T17:08:08.768Z,99999.60
2022-10-24T17:10:41.996Z,100003.40
2022-10-24T17:13:15.369Z,99999.00
2022-10-24T17:15:49.077Z,100003.80
2022-10-24T17:18:23.551Z,100003.00
2022-10-24T17:21:00.357Z,100001.80
2022-10-24T17:23:35.485Z,100004.80
2022-10-24T17:26:18.168Z,100000.20
2022-10-24T17:28:52.437Z,100000.80
2022-10-24T17:31:26.229Z,99994.00
2022-10-24T17:34:00.837Z,99992.40
2022-10-24T17:36:41.342Z,99992.00
2022-10-24T17:40:22.733Z,99994.40
2022-10-24T17:43:16.629Z,100003.60
2022-10-24T17:46:27.710Z,100001.00
2022-10-24T17:49:05.969Z,99995.20
2022-10-24T17:52:01.113Z,99991.00
2022-10-24T17:54:45.667Z,99985.00
2022-10-24T17:57:40.683Z,99978.20
2022-10-24T18:00:27.651Z,99976.80
2022-10-24T18:03:14.598Z,99965.60
2022-10-24T18:06:09.891Z,99971.20
2022-10-24T18:08:58.922Z,99973.00
2022-10-24T18:11:44.209Z,99968.20
2022-10-24T18:14:19.438Z,99966.80
2022-10-24T18:17:06.227Z,99967.80
2022-10-24T18:19:49.786Z,99977.40
2022-10-24T18:22:23.123Z,99983.00
2022-10-24T18:24:56.916Z,99980.00
2022-10-24T18:27:30.352Z,99984.40
2022-10-24T18:30:03.814Z,99985.60
2022-10-24T18:32:40.018Z,99980.00
2022-10-24T18:35:13.698Z,99989.60
2022-10-24T18:37:47.671Z,100005.80
2022-10-24T18:40:23.182Z,100008.80
2022-10-24T18:43:04.258Z,100010.40
2022-10-24T18:45:40.227Z,100006.60
2022-10-24T18:48:15.485Z,99997.20
2022-10-24T18:50:52.211Z,100001.60
2022-10-24T18:53:31.667Z,100002.20
2022-10-24T18:56:05.686Z,99997.60
2022-10-24T18:58:40.736Z,99999.40
2022-10-24T19:01:27.463Z,100001.80
2022-10-24T19:04:06.975Z,100007.40
2022-10-24T19:06:41.311Z,100011.80
2022-10-24T19:09:21.339Z,100011.80
2022-10-24T19:11:55.244Z,100006.80
2022-10-24T19:14:29.234Z,100005.20
2022-10-24T19:17:04.200Z,100010.40
2022-10-24T19:19:38.172Z,100014.60
2022-10-24T19:22:11.676Z,100022.60
2022-10-24T19:24:45.243Z,100026.20
2022-10-24T19:27:18.698Z,100028.40
2022-10-24T19:29:52.803Z,100023.00
2022-10-24T19:32:28.535Z,100014.80
2022-10-24T19:35:04.757Z,100012.00
2022-10-24T19:37:40.361Z,100012.00
2022-10-24T19:40:15.683Z,100013.40
2022-10-24T19:42:51.477Z,100018.40
2022-10-24T19:45:25.485Z,100021.60
2022-10-24T19:47:59.763Z,100021.80
2022-10-24T19:50:33.125Z,100023.40
2022-10-24T19:53:06.623Z,100029.80
2022-10-24T19:55:42.307Z,100033.40
2022-10-24T19:58:20.105Z,100028.60
2022-10-24T20:00:53.594Z,100026.80
2022-10-24T20:03:26.984Z,100032.20
2022-10-24T20:06:05.410Z,100031.00
2022-10-24T20:08:41.166Z,100034.40
2022-10-24T20:11:15.495Z,100028.60
2022-10-24T20:13:52.714Z,100028.20
2022-10-24T20:16:25.981Z,100021.60
2022-10-24T20:19:00.461Z,100021.40
2022-10-24T20:21:35.521Z,100026.80
2022-10-24T20:24:11.145Z,100027.40
2022-10-24T20:26:44.273Z,100034.40
2022-10-24T20:29:17.464Z,100032.40
2022-10-24T20:31:51.162Z,100030.80
2022-10-24T20:34:24.679Z,100033.80
2022-10-24T20:36:57.862Z,100031.40
2022-10-24T20:39:31.040Z,100032.40
2022-10-24T20:42:04.188Z,100027.80
2022-10-24T20:44:37.390Z,100028.60
2022-10-24T20:47:10.953Z,100021.00
2022-10-24T20:49:44.244Z,100028.80
2022-10-24T20:52:17.317Z,100026.00
2022-10-24T20:54:50.873Z,100028.60
2022-10-24T20:57:26.625Z,100028.80
2022-10-24T21:00:03.134Z,100028.60
2022-10-24T21:02:47.548Z,100025.60
2022-10-24T21:05:31.567Z,100025.60
2022-10-24T21:08:06.019Z,100027.60
2022-10-24T21:10:45.578Z,100018.40
2022-10-24T21:13:26.289Z,100020.60
2022-10-24T21:16:06.636Z,100017.40
2022-10-24T21:18:45.604Z,100024.00
2022-10-24T21:21:28.515Z,100021.20
2022-10-24T21:24:06.950Z,100021.40
2022-10-24T21:26:45.512Z,100027.20
2022-10-24T21:29:38.084Z,100026.60
2022-10-24T21:32:16.194Z,100023.80
2022-10-24T21:34:53.959Z,100024.20
2022-10-24T21:37:49.685Z,100037.40
2022-10-24T21:40:32.989Z,100039.20
2022-10-24T21:43:08.431Z,100039.40
2022-10-24T21:45:41.753Z,100039.00
2022-10-24T21:48:19.772Z,100041.60
2022-10-24T21:51:01.551Z,100049.20
2022-10-24T21:53:39.024Z,100051.20
2022-10-24T21:56:15.260Z,100046.20
2022-10-24T21:58:54.480Z,100037.20
2022-10-24T22:01:31.232Z,100033.60
2022-10-24T22:04:06.849Z,100036.80
2022-10-24T22:06:40.833Z,100045.40
2022-10-24T22:09:19.633Z,100042.60
2022-10-24T22:11:54.545Z,100035.00
2022-10-24T22:14:27.987Z,100041.00
2022-10-24T22:17:10.356Z,100042.60
2022-10-24T22:19:43.512Z,100044.60
2022-10-24T22:22:16.918Z,100043.20
2022-10-24T22:24:50.805Z,100041.40
2022-10-24T22:27:24.013Z,100046.20
2022-10-24T22:30:00.430Z,100050.60
2022-10-24T22:32:34.564Z,100059.80
2022-10-24T22:35:16.417Z,100055.40
2022-10-24T22:37:51.103Z,100062.60
2022-10-24T22:40:34.165Z,100058.00
2022-10-24T22:43:10.698Z,100051.20
2022-10-24T22:45:50.913Z,100050.60
2022-10-24T22:48:31.320Z,100049.80
2022-10-24T22:51:23.737Z,100049.80
2022-10-24T22:53:59.811Z,100047.20
2022-10-24T22:56:42.894Z,100044.00
2022-10-24T22:59:20.763Z,100042.20
2022-10-24T23:02:16.857Z,100044.00
2022-10-24T23:05:06.553Z,100046.60
2022-10-24T23:07:56.694Z,100051.80
2022-10-24T23:10:34.144Z,100045.60
2022-10-24T23:13:12.613Z,100038.60
2022-10-24T23:15:47.602Z,100033.80
2022-10-24T23:18:22.284Z,100033.40
2022-10-24T23:21:07.175Z,100039.60
2022-10-24T23:23:41.699Z,100035.80
2022-10-24T23:26:33.675Z,100039.00
2022-10-24T23:29:22.192Z,100039.60
2022-10-24T23:31:58.558Z,100040.00
2022-10-24T23:34:36.897Z,100041.80
2022-10-24T23:37:32.106Z,100043.40
2022-10-24T23:40:24.710Z,100047.20
2022-10-24T23:43:01.028Z,100053.60
2022-10-24T23:45:43.838Z,100051.80
2022-10-24T23:48:36.392Z,100052.60
2022-10-24T23:51:16.626Z,100056.00
2022-10-24T23:53:56.503Z,100054.60
2022-10-24T23:56:32.862Z,100056.00
2022-10-24T23:59:07.590Z,100057.00
